createdAt,value
2018-08-24T00:03:28.091Z,99727.00
2018-08-24T00:08:31.024Z,99729.00
2018-08-24T00:13:33.984Z,99733.00
2018-08-24T00:18:37.131Z,99732.00
2018-08-24T00:23:40.528Z,99710.00
2018-08-24T00:28:43.497Z,99711.00
2018-08-24T00:33:52.196Z,99715.00
2018-08-24T00:38:56.120Z,99713.00
2018-08-24T00:43:59.272Z,99707.00
2018-08-24T00:49:02.743Z,99698.00
2018-08-24T00:54:05.711Z,99694.00
2018-08-24T00:59:08.852Z,99717.00
2018-08-24T01:04:12.012Z,99714.00
2018-08-24T01:09:14.972Z,99722.00
2018-08-24T01:14:17.971Z,99728.00
2018-08-24T01:19:20.939Z,99721.00
2018-08-24T01:24:28.995Z,99727.00
2018-08-24T01:29:36.719Z,99722.00
2018-08-24T01:34:39.696Z,99712.00
2018-08-24T01:39:42.645Z,99702.00
2018-08-24T01:44:45.774Z,99713.00
2018-08-24T01:49:48.730Z,99714.00
2018-08-24T01:54:51.934Z,99697.00
2018-08-24T01:59:54.948Z,99692.00
2018-08-24T02:04:58.151Z,99702.00
2018-08-24T02:10:01.200Z,99702.00
2018-08-24T02:15:04.465Z,99694.00
2018-08-24T02:20:13.376Z,99700.00
2018-08-24T02:25:16.928Z,99695.00
2018-08-24T02:30:20.127Z,99694.00
2018-08-24T02:35:23.339Z,99687.00
2018-08-24T02:40:26.547Z,99693.00
2018-08-24T02:45:29.755Z,99693.00
2018-08-24T02:50:32.881Z,99688.00
2018-08-24T02:55:36.084Z,99685.00
2018-08-24T03:00:39.288Z,99695.00
2018-08-24T03:05:42.599Z,99695.00
2018-08-24T03:10:45.465Z,99690.00
2018-08-24T03:15:48.422Z,99689.00
2018-08-24T03:20:51.359Z,99696.00
2018-08-24T03:25:54.512Z,99700.00
2018-08-24T03:30:57.621Z,99695.00
2018-08-24T03:36:00.823Z,99689.00
2018-08-24T03:41:03.811Z,99685.00
2018-08-24T03:46:06.783Z,99689.00
2018-08-24T03:51:09.720Z,99684.00
2018-08-24T03:56:12.831Z,99687.00
2018-08-24T04:01:16.055Z,99688.00
2018-08-24T04:06:19.014Z,99692.00
2018-08-24T04:11:22.263Z,99692.00
2018-08-24T04:16:25.228Z,99692.00
2018-08-24T04:21:28.494Z,99690.00
2018-08-24T04:26:31.604Z,99694.00
2018-08-24T04:31:35.058Z,99707.00
2018-08-24T04:36:38.117Z,99707.00
2018-08-24T04:41:42.224Z,99705.00
2018-08-24T04:46:45.303Z,99707.00
2018-08-24T04:51:48.305Z,99715.00
2018-08-24T04:56:51.319Z,99722.00
2018-08-24T05:01:54.337Z,99724.00
2018-08-24T05:06:57.679Z,99725.00
2018-08-24T05:12:00.856Z,99727.00
2018-08-24T05:17:04.087Z,99738.00
2018-08-24T05:22:07.084Z,99736.00
2018-08-24T05:27:10.116Z,99739.00
2018-08-24T05:32:13.300Z,99747.00
2018-08-24T05:37:16.328Z,99752.00
2018-08-24T05:42:20.028Z,99764.00
2018-08-24T05:47:23.052Z,99767.00
2018-08-24T05:52:26.242Z,99772.00
2018-08-24T05:57:29.335Z,99782.00
2018-08-24T06:02:32.575Z,99774.00
2018-08-24T06:07:35.763Z,99774.00
2018-08-24T06:12:38.838Z,99782.00
2018-08-24T06:17:47.384Z,99779.00
2018-08-24T06:22:50.725Z,99792.00
2018-08-24T06:27:53.720Z,99791.00
2018-08-24T06:32:57.123Z,99794.00
2018-08-24T06:38:00.251Z,99793.00
2018-08-24T06:43:03.239Z,99799.00
2018-08-24T06:48:06.289Z,99805.00
2018-08-24T06:53:09.515Z,99810.00
2018-08-24T06:58:12.684Z,99809.00
2018-08-24T07:03:15.880Z,99832.00
2018-08-24T07:08:19.039Z,99835.00
2018-08-24T07:13:22.410Z,99840.00
2018-08-24T07:18:25.408Z,99834.00
2018-08-24T07:23:28.507Z,99838.00
2018-08-24T07:28:31.453Z,99840.00
2018-08-24T07:33:34.492Z,99836.00
2018-08-24T07:38:37.745Z,99839.00
2018-08-24T07:43:41.143Z,99843.00
2018-08-24T07:48:44.080Z,99842.00
2018-08-24T07:53:47.048Z,99859.00
2018-08-24T07:58:50.083Z,99860.00
2018-08-24T08:03:53.325Z,99851.00
2018-08-24T08:08:56.573Z,99854.00
2018-08-24T08:13:59.819Z,99866.00
2018-08-24T08:19:02.918Z,99871.00
2018-08-24T08:24:05.935Z,99865.00
2018-08-24T08:29:13.705Z,99876.00
2018-08-24T08:34:17.127Z,99875.00
2018-08-24T08:39:20.156Z,99862.00
2018-08-24T08:44:23.196Z,99886.00
2018-08-24T08:49:26.511Z,99885.00
2018-08-24T08:54:29.692Z,99899.00
2018-08-24T08:59:32.648Z,99896.00
2018-08-24T09:04:35.665Z,99924.00
2018-08-24T09:09:38.705Z,99945.00
2018-08-24T09:14:41.672Z,99938.00
2018-08-24T09:20:54.072Z,99965.00
2018-08-24T09:26:02.692Z,99981.00
2018-08-24T09:31:11.289Z,99988.00
2018-08-24T09:36:19.276Z,99987.00
2018-08-24T09:41:22.336Z,99987.00
2018-08-24T09:46:31.032Z,99991.00
2018-08-24T09:51:34.253Z,99994.00
2018-08-24T09:56:39.483Z,100002.00
2018-08-24T10:01:48.024Z,100006.00
2018-08-24T10:06:56.747Z,99994.00
2018-08-24T10:12:00.118Z,99968.00
2018-08-24T10:17:03.324Z,99982.00
2018-08-24T10:22:06.824Z,99990.00
2018-08-24T10:27:09.945Z,99974.00
2018-08-24T10:32:13.140Z,99974.00
2018-08-24T10:37:16.346Z,99989.00
2018-08-24T10:42:19.344Z,99975.00
2018-08-24T10:47:22.598Z,99967.00
2018-08-24T10:52:25.569Z,99950.00
2018-08-24T10:57:28.711Z,99946.00
2018-08-24T11:02:31.687Z,99958.00
2018-08-24T11:07:34.676Z,99953.00
2018-08-24T11:12:37.886Z,99951.00
2018-08-24T11:17:46.739Z,99948.00
2018-08-24T11:22:49.813Z,99942.00
2018-08-24T11:27:52.973Z,99935.00
2018-08-24T11:32:56.443Z,99945.00
2018-08-24T11:38:00.819Z,99929.00
2018-08-24T11:43:03.898Z,99920.00
2018-08-24T11:48:07.226Z,99913.00
2018-08-24T11:53:10.364Z,99911.00
2018-08-24T11:58:13.444Z,99916.00
2018-08-24T12:03:16.709Z,99902.00
2018-08-24T12:08:20.107Z,99895.00
2018-08-24T12:13:23.290Z,99892.00
2018-08-24T12:18:26.589Z,99891.00
2018-08-24T12:23:29.893Z,99890.00
2018-08-24T12:28:33.212Z,99888.00
2018-08-24T12:33:36.483Z,99887.00
2018-08-24T12:38:39.641Z,99873.00
2018-08-24T12:43:43.326Z,99884.00
2018-08-24T12:48:46.351Z,99875.00
2018-08-24T12:53:49.396Z,99870.00
2018-08-24T12:58:53.256Z,99870.00
2018-08-24T13:03:56.386Z,99870.00
2018-08-24T13:08:59.494Z,99858.00
2018-08-24T13:14:03.063Z,99859.00
2018-08-24T13:19:06.688Z,99857.00
2018-08-24T13:24:09.753Z,99846.00
2018-08-24T13:29:12.956Z,99842.00
2018-08-24T13:34:16.268Z,99840.00
2018-08-24T13:39:19.705Z,99826.00
2018-08-24T13:44:23.023Z,99830.00
2018-08-24T13:49:26.964Z,99835.00
2018-08-24T13:54:30.316Z,99825.00
2018-08-24T13:59:33.567Z,99808.00
2018-08-24T14:04:36.492Z,99810.00
2018-08-24T14:09:39.720Z,99812.00
2018-08-24T14:14:42.773Z,99795.00
2018-08-24T14:19:45.902Z,99801.00
2018-08-24T14:24:48.968Z,99793.00
2018-08-24T14:29:52.137Z,99795.00
2018-08-24T14:34:55.573Z,99790.00
2018-08-24T14:39:58.796Z,99783.00
2018-08-24T14:45:01.784Z,99780.00
2018-08-24T14:50:05.428Z,99773.00
2018-08-24T14:55:08.617Z,99780.00
2018-08-24T15:00:11.996Z,99792.00
2018-08-24T15:05:15.231Z,99786.00
2018-08-24T15:10:18.349Z,99801.00
2018-08-24T15:15:21.388Z,99798.00
2018-08-24T15:20:24.548Z,99796.00
2018-08-24T15:25:27.623Z,99786.00
2018-08-24T15:30:30.744Z,99776.00
2018-08-24T15:35:34.085Z,99768.00
2018-08-24T15:40:37.325Z,99765.00
2018-08-24T15:45:40.601Z,99769.00
2018-08-24T15:50:43.596Z,99768.00
2018-08-24T15:55:46.576Z,99747.00
2018-08-24T16:00:49.757Z,99750.00
2018-08-24T16:05:53.141Z,99753.00
2018-08-24T16:10:56.323Z,99756.00
2018-08-24T16:15:59.539Z,99759.00
2018-08-24T16:21:02.757Z,99756.00
2018-08-24T16:26:06.246Z,99754.00
2018-08-24T16:31:09.282Z,99750.00
2018-08-24T16:36:12.511Z,99755.00
2018-08-24T16:41:15.659Z,99746.00
2018-08-24T16:46:18.720Z,99766.00
2018-08-24T16:51:21.773Z,99767.00
2018-08-24T16:56:25.111Z,99767.00
2018-08-24T17:01:28.324Z,99759.00
2018-08-24T17:06:31.517Z,99755.00
2018-08-24T17:11:34.754Z,99753.00
2018-08-24T17:16:37.732Z,99753.00
2018-08-24T17:21:41.877Z,99758.00
2018-08-24T17:26:44.968Z,99756.00
2018-08-24T17:31:48.107Z,99745.00
2018-08-24T17:36:51.221Z,99744.00
2018-08-24T17:41:54.378Z,99738.00
2018-08-24T17:46:57.317Z,99748.00
2018-08-24T17:52:00.211Z,99751.00
2018-08-24T17:57:03.317Z,99748.00
2018-08-24T18:02:06.684Z,99757.00
2018-08-24T18:07:09.939Z,99763.00
2018-08-24T18:12:12.942Z,99763.00
2018-08-24T18:17:16.344Z,99776.00
2018-08-24T18:22:19.560Z,99767.00
2018-08-24T18:27:22.831Z,99774.00
2018-08-24T18:32:25.871Z,99768.00
2018-08-24T18:37:28.913Z,99769.00
2018-08-24T18:42:32.101Z,99779.00
2018-08-24T18:47:35.291Z,99790.00
2018-08-24T18:52:38.538Z,99794.00
2018-08-24T18:57:41.669Z,99791.00
2018-08-24T19:02:44.937Z,99803.00
2018-08-24T19:07:52.949Z,99810.00
2018-08-24T19:12:56.157Z,99817.00
2018-08-24T19:18:05.209Z,99827.00
2018-08-24T19:23:08.322Z,99841.00
2018-08-24T19:28:17.357Z,99828.00
2018-08-24T19:33:20.412Z,99843.00
2018-08-24T19:38:23.672Z,99848.00
2018-08-24T19:43:26.855Z,99847.00
2018-08-24T19:48:36.427Z,99849.00
2018-08-24T19:53:39.660Z,99856.00
2018-08-24T19:58:48.642Z,99861.00
2018-08-24T20:03:51.708Z,99872.00
2018-08-24T20:09:00.650Z,99879.00
2018-08-24T20:14:03.993Z,99877.00
2018-08-24T20:19:07.399Z,99884.00
2018-08-24T20:24:10.621Z,99884.00
2018-08-24T20:29:13.612Z,99889.00
2018-08-24T20:34:16.937Z,99890.00
2018-08-24T20:39:19.972Z,99886.00
2018-08-24T20:44:23.189Z,99886.00
2018-08-24T20:49:26.253Z,99894.00
2018-08-24T20:54:29.301Z,99896.00
2018-08-24T20:59:32.375Z,99889.00
2018-08-24T21:04:35.805Z,99889.00
2018-08-24T21:09:38.906Z,99890.00
2018-08-24T21:14:42.257Z,99880.00
2018-08-24T21:19:45.471Z,99875.00
2018-08-24T21:24:48.560Z,99872.00
2018-08-24T21:29:51.654Z,99864.00
2018-08-24T21:34:54.683Z,99874.00
2018-08-24T21:39:57.656Z,99880.00
2018-08-24T21:45:00.728Z,99878.00
2018-08-24T21:50:04.212Z,99871.00
2018-08-24T21:55:07.277Z,99859.00
2018-08-24T22:00:13.695Z,99864.00
2018-08-24T22:05:16.829Z,99865.00
2018-08-24T22:10:20.008Z,99866.00
2018-08-24T22:15:23.228Z,99871.00
2018-08-24T22:20:27.399Z,99866.00
2018-08-24T22:25:30.465Z,99863.00
2018-08-24T22:30:33.491Z,99862.00
2018-08-24T22:35:36.644Z,99864.00
2018-08-24T22:40:39.908Z,99859.00
2018-08-24T22:45:43.221Z,99865.00
2018-08-24T22:50:46.306Z,99855.00
2018-08-24T22:55:49.461Z,99851.00
2018-08-24T23:00:52.568Z,99839.00
2018-08-24T23:05:55.648Z,99838.00
2018-08-24T23:10:58.828Z,99839.00
2018-08-24T23:16:01.940Z,99829.00
2018-08-24T23:21:05.220Z,99822.00
2018-08-24T23:26:08.462Z,99822.00
2018-08-24T23:31:11.492Z,99821.00
2018-08-24T23:36:14.877Z,99823.00
2018-08-24T23:41:17.914Z,99825.00
2018-08-24T23:46:20.996Z,99805.00
2018-08-24T23:51:24.005Z,99818.00
2018-08-24T23:56:27.254Z,99808.00
